createdAt,value
2022-09-21T00:00:49.773Z,16.47
2022-09-21T00:03:16.535Z,13.43
2022-09-21T00:05:43.107Z,12.90
2022-09-21T00:08:12.609Z,15.83
2022-09-21T00:10:40.113Z,15.20
2022-09-21T00:13:08.190Z,10.90
2022-09-21T00:15:34.950Z,13.07
2022-09-21T00:18:02.261Z,13.33
2022-09-21T00:20:28.982Z,8.77
2022-09-21T00:22:55.512Z,9.67
2022-09-21T00:25:22.177Z,9.90
2022-09-21T00:27:50.434Z,8.03
2022-09-21T00:30:17.812Z,9.13
2022-09-21T00:32:44.387Z,11.13
2022-09-21T00:35:10.915Z,9.83
2022-09-21T00:37:37.440Z,5.60
2022-09-21T00:40:05.085Z,11.63
2022-09-21T00:42:34.339Z,8.30
2022-09-21T00:45:01.919Z,16.10
2022-09-21T00:47:33.069Z,12.77
2022-09-21T00:50:03.972Z,15.60
2022-09-21T00:52:34.577Z,11.97
2022-09-21T00:55:06.071Z,10.00
2022-09-21T00:57:34.774Z,15.00
2022-09-21T01:00:07.732Z,13.20
2022-09-21T01:02:34.723Z,9.77
2022-09-21T01:05:03.322Z,10.73
2022-09-21T01:07:32.949Z,12.43
2022-09-21T01:10:02.254Z,5.30
2022-09-21T01:12:46.965Z,8.07
2022-09-21T01:15:27.288Z,9.10
2022-09-21T01:18:03.179Z,6.10
2022-09-21T01:21:05.275Z,10.87
2022-09-21T01:24:16.397Z,6.03
2022-09-21T01:27:04.512Z,8.93
2022-09-21T01:29:33.372Z,7.40
2022-09-21T01:32:07.671Z,4.80
2022-09-21T01:34:38.993Z,9.00
2022-09-21T01:37:12.523Z,4.87
2022-09-21T01:39:41.824Z,12.13
2022-09-21T01:42:09.969Z,9.97
2022-09-21T01:44:40.120Z,7.00
2022-09-21T01:47:11.811Z,6.23
2022-09-21T01:49:44.634Z,7.30
2022-09-21T01:52:16.194Z,16.30
2022-09-21T01:54:47.443Z,5.73
2022-09-21T01:57:20.908Z,6.97
2022-09-21T01:59:52.157Z,5.70
2022-09-21T02:02:22.083Z,17.47
2022-09-21T02:04:48.779Z,12.17
2022-09-21T02:07:17.428Z,11.90
2022-09-21T02:09:46.794Z,8.90
2022-09-21T02:12:18.751Z,8.97
2022-09-21T02:14:46.422Z,16.07
2022-09-21T02:17:26.923Z,8.77
2022-09-21T02:20:02.404Z,6.03
2022-09-21T02:22:33.452Z,5.40
2022-09-21T02:25:08.839Z,12.67
2022-09-21T02:27:43.645Z,9.53
2022-09-21T02:30:15.680Z,9.13
2022-09-21T02:32:50.563Z,9.70
2022-09-21T02:35:27.619Z,10.17
2022-09-21T02:38:01.752Z,6.67
2022-09-21T02:40:32.975Z,7.60
2022-09-21T02:43:03.804Z,7.53
2022-09-21T02:45:33.557Z,7.80
2022-09-21T02:48:05.472Z,8.50
2022-09-21T02:50:36.948Z,6.07
2022-09-21T02:53:05.765Z,8.27
2022-09-21T02:55:33.390Z,15.07
2022-09-21T02:58:05.119Z,19.30
2022-09-21T03:00:33.078Z,8.20
2022-09-21T03:03:00.292Z,13.87
2022-09-21T03:05:28.771Z,13.43
2022-09-21T03:07:55.326Z,17.97
2022-09-21T03:10:21.957Z,15.73
2022-09-21T03:12:48.511Z,19.10
2022-09-21T03:15:16.055Z,12.40
2022-09-21T03:17:42.580Z,16.47
2022-09-21T03:20:10.326Z,18.67
2022-09-21T03:22:36.889Z,13.80
2022-09-21T03:25:04.328Z,14.87
2022-09-21T03:27:30.829Z,14.33
2022-09-21T03:30:01.302Z,17.77
2022-09-21T03:32:28.667Z,15.03
2022-09-21T03:34:55.170Z,16.17
2022-09-21T03:37:22.389Z,18.70
2022-09-21T03:39:48.931Z,18.30
2022-09-21T03:42:15.480Z,18.67
2022-09-21T03:44:42.408Z,22.43
2022-09-21T03:47:08.964Z,18.60
2022-09-21T03:49:35.567Z,18.83
2022-09-21T03:52:03.077Z,23.80
2022-09-21T03:54:30.285Z,15.37
2022-09-21T03:56:56.831Z,18.80
2022-09-21T03:59:23.814Z,19.43
2022-09-21T04:01:50.371Z,14.43
2022-09-21T04:04:16.943Z,17.13
2022-09-21T04:06:45.464Z,13.80
2022-09-21T04:09:12.239Z,13.00
2022-09-21T04:11:39.461Z,15.87
2022-09-21T04:14:06.027Z,14.47
2022-09-21T04:16:32.558Z,14.23
2022-09-21T04:18:59.219Z,17.10
2022-09-21T04:21:25.792Z,13.47
2022-09-21T04:23:52.599Z,14.73
2022-09-21T04:26:22.359Z,9.83
2022-09-21T04:28:50.351Z,16.90
2022-09-21T04:31:17.140Z,12.63
2022-09-21T04:33:43.907Z,19.37
2022-09-21T04:36:10.475Z,8.57
2022-09-21T04:38:37.480Z,9.60
2022-09-21T04:41:04.273Z,9.50
2022-09-21T04:43:30.891Z,14.43
2022-09-21T04:45:58.234Z,16.83
2022-09-21T04:48:24.820Z,17.73
2022-09-21T04:50:51.507Z,9.77
2022-09-21T04:53:18.227Z,9.63
2022-09-21T04:55:45.215Z,13.63
2022-09-21T04:58:11.820Z,20.50
2022-09-21T05:00:38.392Z,18.57
2022-09-21T05:03:05.630Z,15.17
2022-09-21T05:05:32.409Z,13.67
2022-09-21T05:07:58.972Z,12.70
2022-09-21T05:10:25.359Z,14.17
2022-09-21T05:12:52.195Z,19.07
2022-09-21T05:15:19.701Z,15.40
2022-09-21T05:17:46.551Z,15.27
2022-09-21T05:20:13.891Z,13.13
2022-09-21T05:22:40.648Z,12.67
2022-09-21T05:25:08.686Z,19.50
2022-09-21T05:27:35.478Z,17.13
2022-09-21T05:30:02.725Z,8.53
2022-09-21T05:32:41.125Z,22.13
2022-09-21T05:35:16.755Z,10.90
2022-09-21T05:37:51.837Z,16.33
2022-09-21T05:40:19.475Z,16.63
2022-09-21T05:42:46.619Z,12.10
2022-09-21T05:45:15.303Z,11.47
2022-09-21T05:47:53.253Z,7.37
2022-09-21T05:50:40.716Z,14.90
2022-09-21T05:53:29.403Z,16.10
2022-09-21T05:56:00.122Z,10.50
2022-09-21T05:58:35.467Z,13.20
2022-09-21T06:01:17.261Z,11.97
2022-09-21T06:03:44.382Z,19.47
2022-09-21T06:06:11.617Z,17.03
2022-09-21T06:08:38.214Z,21.87
2022-09-21T06:11:05.172Z,25.37
2022-09-21T06:13:31.704Z,20.77
2022-09-21T06:16:02.045Z,18.20
2022-09-21T06:18:28.616Z,25.73
2022-09-21T06:20:55.482Z,21.03
2022-09-21T06:23:22.738Z,15.27
2022-09-21T06:25:56.038Z,19.53
2022-09-21T06:28:25.261Z,21.80
2022-09-21T06:30:52.814Z,18.40
2022-09-21T06:33:22.592Z,24.93
2022-09-21T06:35:53.153Z,19.20
2022-09-21T06:38:20.005Z,9.03
2022-09-21T06:40:47.257Z,25.77
2022-09-21T06:43:13.815Z,21.47
2022-09-21T06:45:40.561Z,14.07
2022-09-21T06:48:07.186Z,14.73
2022-09-21T06:50:33.912Z,11.67
2022-09-21T06:53:01.158Z,10.83
2022-09-21T06:55:27.945Z,16.63
2022-09-21T06:58:00.322Z,18.87
2022-09-21T07:00:26.954Z,12.83
2022-09-21T07:02:53.539Z,14.00
2022-09-21T07:05:20.217Z,11.13
2022-09-21T07:07:53.699Z,20.17
2022-09-21T07:10:20.869Z,22.03
2022-09-21T07:12:51.254Z,13.27
2022-09-21T07:15:20.678Z,18.13
2022-09-21T07:17:51.817Z,15.00
2022-09-21T07:20:25.861Z,16.97
2022-09-21T07:22:52.460Z,13.47
2022-09-21T07:25:19.023Z,13.17
2022-09-21T07:27:47.468Z,16.00
2022-09-21T07:30:14.066Z,26.10
2022-09-21T07:32:42.098Z,19.90
2022-09-21T07:35:08.952Z,14.63
2022-09-21T07:37:35.593Z,23.30
2022-09-21T07:40:05.185Z,13.30
2022-09-21T07:42:31.854Z,15.37
2022-09-21T07:45:03.899Z,23.83
2022-09-21T07:47:31.560Z,17.20
2022-09-21T07:49:58.876Z,23.23
2022-09-21T07:52:25.517Z,18.47
2022-09-21T07:54:52.084Z,14.17
2022-09-21T07:57:36.680Z,20.27
2022-09-21T08:00:04.595Z,13.27
2022-09-21T08:02:31.240Z,11.27
2022-09-21T08:04:58.695Z,14.27
2022-09-21T08:07:27.287Z,19.93
2022-09-21T08:09:53.969Z,15.50
2022-09-21T08:12:21.426Z,17.10
2022-09-21T08:14:48.068Z,19.07
2022-09-21T08:17:14.651Z,18.50
2022-09-21T08:19:41.384Z,14.97
2022-09-21T08:22:08.750Z,15.83
2022-09-21T08:24:36.726Z,27.60
2022-09-21T08:27:03.612Z,15.87
2022-09-21T08:29:30.362Z,24.77
2022-09-21T08:31:57.378Z,12.13
2022-09-21T08:34:24.154Z,18.97
2022-09-21T08:36:55.046Z,17.53
2022-09-21T08:39:23.183Z,17.63
2022-09-21T08:42:17.774Z,13.93
2022-09-21T08:44:49.307Z,13.93
2022-09-21T08:47:22.676Z,21.27
2022-09-21T08:49:59.442Z,14.37
2022-09-21T08:52:26.521Z,12.13
2022-09-21T08:54:59.407Z,17.03
2022-09-21T08:57:29.925Z,10.63
2022-09-21T08:59:56.872Z,13.33
2022-09-21T09:02:38.214Z,22.63
2022-09-21T09:05:24.118Z,15.17
2022-09-21T09:08:14.196Z,14.90
2022-09-21T09:10:51.624Z,12.37
2022-09-21T09:13:38.353Z,10.53
2022-09-21T09:16:14.223Z,22.37
2022-09-21T09:18:53.591Z,23.17
2022-09-21T09:21:31.173Z,15.47
2022-09-21T09:27:52.145Z,12.60
2022-09-21T09:30:20.894Z,22.93
2022-09-21T09:32:56.821Z,13.90
2022-09-21T09:35:32.394Z,15.57
2022-09-21T09:38:05.646Z,8.63
2022-09-21T09:40:48.565Z,17.17
2022-09-21T09:43:29.494Z,9.30
2022-09-21T09:46:11.924Z,8.27
2022-09-21T09:49:00.519Z,9.47
2022-09-21T09:51:27.077Z,9.53
2022-09-21T09:53:58.807Z,15.10
2022-09-21T09:56:26.165Z,10.30
2022-09-21T09:58:57.333Z,10.40
2022-09-21T10:01:39.087Z,14.93
2022-09-21T10:04:08.231Z,10.10
2022-09-21T10:06:35.676Z,12.40
2022-09-21T10:09:20.013Z,5.97
2022-09-21T10:11:46.954Z,7.13
2022-09-21T10:14:20.720Z,4.67
2022-09-21T10:16:50.906Z,10.77
2022-09-21T10:19:21.376Z,12.67
2022-09-21T10:21:52.250Z,5.70
2022-09-21T10:24:25.717Z,8.20
2022-09-21T10:26:55.429Z,9.17
2022-09-21T10:29:38.918Z,6.23
2022-09-21T10:32:17.954Z,6.80
2022-09-21T10:35:14.421Z,7.70
2022-09-21T10:37:42.128Z,6.97
2022-09-21T10:40:27.191Z,9.00
2022-09-21T10:42:55.679Z,8.13
2022-09-21T10:45:25.194Z,7.10
2022-09-21T10:47:53.771Z,7.60
2022-09-21T10:50:24.792Z,4.43
2022-09-21T10:52:57.273Z,3.70
2022-09-21T10:55:24.790Z,5.17
2022-09-21T10:57:52.498Z,4.20
2022-09-21T11:00:43.715Z,3.00
2022-09-21T11:03:41.150Z,2.80
2022-09-21T11:06:14.127Z,2.63
2022-09-21T11:08:46.652Z,3.23
2022-09-21T11:11:43.995Z,4.77
2022-09-21T11:18:08.618Z,4.67
2022-09-21T11:20:43.003Z,7.63
2022-09-21T11:23:21.150Z,3.37
2022-09-21T11:25:57.835Z,1.30
2022-09-21T11:28:29.167Z,2.40
2022-09-21T11:31:14.550Z,5.13
2022-09-21T11:33:55.485Z,7.93
2022-09-21T11:40:30.324Z,1.73
2022-09-21T11:43:08.508Z,1.30
2022-09-21T11:45:53.041Z,1.43
2022-09-21T11:48:30.786Z,2.07
2022-09-21T11:51:13.703Z,2.87
2022-09-21T11:54:02.853Z,6.47
2022-09-21T11:56:40.326Z,6.30
2022-09-21T11:59:29.174Z,3.27
2022-09-21T12:02:16.912Z,5.63
2022-09-21T12:04:49.680Z,3.50
2022-09-21T12:07:49.032Z,2.40
2022-09-21T12:10:37.440Z,5.97
2022-09-21T12:13:14.923Z,9.30
2022-09-21T12:15:49.281Z,1.80
2022-09-21T12:18:28.652Z,2.83
2022-09-21T12:21:02.024Z,3.50
2022-09-21T12:23:38.051Z,2.47
2022-09-21T12:26:06.214Z,2.43
2022-09-21T12:28:37.021Z,1.20
2022-09-21T12:31:09.148Z,2.33
2022-09-21T12:33:39.645Z,2.00
2022-09-21T12:36:13.958Z,1.30
2022-09-21T12:38:47.212Z,3.03
2022-09-21T12:41:18.093Z,10.60
2022-09-21T12:43:49.687Z,1.63
2022-09-21T12:46:21.554Z,2.43
2022-09-21T12:48:48.477Z,2.80
2022-09-21T12:51:23.265Z,2.37
2022-09-21T12:53:53.054Z,2.47
2022-09-21T12:56:29.055Z,11.97
2022-09-21T12:59:07.976Z,5.33
2022-09-21T13:01:40.605Z,4.37
2022-09-21T13:04:24.003Z,2.87
2022-09-21T13:07:21.187Z,3.40
2022-09-21T13:09:50.594Z,1.13
2022-09-21T13:12:20.267Z,4.87
2022-09-21T13:14:51.108Z,2.33
2022-09-21T13:17:23.282Z,9.83
2022-09-21T13:19:59.257Z,2.47
2022-09-21T13:22:29.469Z,1.87
2022-09-21T13:25:04.384Z,3.00
2022-09-21T13:27:59.965Z,2.07
2022-09-21T13:30:32.556Z,1.57
2022-09-21T13:33:00.962Z,5.40
2022-09-21T13:35:53.240Z,1.53
2022-09-21T13:38:25.330Z,2.17
2022-09-21T13:40:58.933Z,1.87
2022-09-21T13:43:49.865Z,4.27
2022-09-21T13:46:48.242Z,9.47
2022-09-21T13:49:20.487Z,4.15
2022-09-21T13:51:52.550Z,1.65
2022-09-21T13:54:23.425Z,5.77
2022-09-21T13:57:13.465Z,3.15
2022-09-21T13:59:42.898Z,2.67
2022-09-21T14:02:31.866Z,4.77
2022-09-21T14:05:04.491Z,5.83
2022-09-21T14:07:32.229Z,3.70
2022-09-21T14:10:01.837Z,4.03
2022-09-21T14:12:38.565Z,4.80
2022-09-21T14:15:28.987Z,6.73
2022-09-21T14:18:17.596Z,3.33
2022-09-21T14:21:09.288Z,4.40
2022-09-21T14:23:36.990Z,1.90
2022-09-21T14:26:20.166Z,4.10
2022-09-21T14:28:51.662Z,2.23
2022-09-21T14:31:25.822Z,4.80
2022-09-21T14:33:55.188Z,0.90
2022-09-21T14:36:30.917Z,6.37
2022-09-21T14:39:01.778Z,2.07
2022-09-21T14:41:33.803Z,2.97
2022-09-21T14:44:01.667Z,4.63
2022-09-21T14:47:11.375Z,1.87
2022-09-21T14:49:54.567Z,4.00
2022-09-21T14:52:32.642Z,3.83
2022-09-21T14:55:14.833Z,2.27
2022-09-21T14:57:59.367Z,4.00
2022-09-21T15:00:38.875Z,1.30
2022-09-21T15:03:25.652Z,1.53
2022-09-21T15:05:56.685Z,5.83
2022-09-21T15:08:58.993Z,4.30
2022-09-21T15:11:30.445Z,5.57
2022-09-21T15:14:20.602Z,2.37
2022-09-21T15:16:49.656Z,2.33
2022-09-21T15:19:22.501Z,3.30
2022-09-21T15:21:51.382Z,10.20
2022-09-21T15:24:24.131Z,3.27
2022-09-21T15:26:53.276Z,1.80
2022-09-21T15:29:25.309Z,1.07
2022-09-21T15:31:53.239Z,3.07
2022-09-21T15:34:21.527Z,4.37
2022-09-21T15:36:50.289Z,3.20
2022-09-21T15:39:27.937Z,2.17
2022-09-21T15:42:19.250Z,9.80
2022-09-21T15:44:48.317Z,2.47
2022-09-21T15:47:19.239Z,1.77
2022-09-21T15:49:45.994Z,4.20
2022-09-21T15:52:24.359Z,3.70
2022-09-21T15:54:56.110Z,2.00
2022-09-21T15:57:35.705Z,5.23
2022-09-21T16:00:07.101Z,2.00
2022-09-21T16:02:37.733Z,5.00
2022-09-21T16:05:06.851Z,2.07
2022-09-21T16:07:35.492Z,2.03
2022-09-21T16:10:22.898Z,1.40
2022-09-21T16:12:50.080Z,2.50
2022-09-21T16:15:22.359Z,2.90
2022-09-21T16:18:00.721Z,2.43
2022-09-21T16:20:43.120Z,3.00
2022-09-21T16:23:15.093Z,2.33
2022-09-21T16:25:43.079Z,3.83
2022-09-21T16:28:28.785Z,2.13
2022-09-21T16:30:56.772Z,2.73
2022-09-21T16:33:41.592Z,2.00
2022-09-21T16:36:43.332Z,3.43
2022-09-21T16:39:15.468Z,2.63
2022-09-21T16:41:51.810Z,3.13
2022-09-21T16:44:24.768Z,2.73
2022-09-21T16:46:57.542Z,3.03
2022-09-21T16:49:30.179Z,5.33
2022-09-21T16:51:58.741Z,2.90
2022-09-21T16:54:26.522Z,4.83
2022-09-21T16:56:55.468Z,2.77
2022-09-21T16:59:22.668Z,8.53
2022-09-21T17:01:56.061Z,3.07
2022-09-21T17:04:26.070Z,4.27
2022-09-21T17:06:54.230Z,5.10
2022-09-21T17:09:28.939Z,2.47
2022-09-21T17:11:59.464Z,7.87
2022-09-21T17:14:26.357Z,9.23
2022-09-21T17:16:57.736Z,4.70
2022-09-21T17:19:25.169Z,11.60
2022-09-21T17:21:54.942Z,4.80
2022-09-21T17:24:46.048Z,10.13
2022-09-21T17:27:12.415Z,6.13
2022-09-21T17:29:46.512Z,6.10
2022-09-21T17:32:13.950Z,17.17
2022-09-21T17:34:41.804Z,12.43
2022-09-21T17:37:09.357Z,10.87
2022-09-21T17:39:36.071Z,8.60
2022-09-21T17:42:06.149Z,9.10
2022-09-21T17:44:59.959Z,9.63
2022-09-21T17:47:32.540Z,8.07
2022-09-21T17:50:08.643Z,11.57
2022-09-21T17:52:54.174Z,15.70
2022-09-21T17:55:21.364Z,12.80
2022-09-21T17:57:59.815Z,24.97
2022-09-21T18:00:40.746Z,14.73
2022-09-21T18:03:21.462Z,13.57
2022-09-21T18:05:50.389Z,10.10
2022-09-21T18:08:17.837Z,12.03
2022-09-21T18:10:52.551Z,11.87
2022-09-21T18:13:28.178Z,14.47
2022-09-21T18:16:07.170Z,14.87
2022-09-21T18:18:43.589Z,13.70
2022-09-21T18:21:17.803Z,13.33
2022-09-21T18:24:01.774Z,9.13
2022-09-21T18:26:29.027Z,15.90
2022-09-21T18:28:57.520Z,14.13
2022-09-21T18:31:41.454Z,10.77
2022-09-21T18:34:28.417Z,8.43
2022-09-21T18:37:04.048Z,17.33
2022-09-21T18:39:41.862Z,12.17
2022-09-21T18:42:28.747Z,12.27
2022-09-21T18:45:05.939Z,9.13
2022-09-21T18:47:40.885Z,16.87
2022-09-21T18:50:29.206Z,10.23
2022-09-21T18:53:03.569Z,10.00
2022-09-21T18:55:36.912Z,10.30
2022-09-21T18:58:06.390Z,15.83
2022-09-21T19:00:34.908Z,14.13
2022-09-21T19:03:19.732Z,10.40
2022-09-21T19:05:56.465Z,12.33
2022-09-21T19:08:43.200Z,13.67
2022-09-21T19:29:37.945Z,13.07
2022-09-21T19:32:14.336Z,17.17
2022-09-21T19:34:41.652Z,10.07
2022-09-21T19:37:08.827Z,9.07
2022-09-21T19:39:38.079Z,11.27
2022-09-21T19:42:13.773Z,10.83
2022-09-21T19:44:54.497Z,7.37
2022-09-21T19:47:28.932Z,8.20
2022-09-21T19:50:05.197Z,6.97
2022-09-21T19:52:35.541Z,11.47
2022-09-21T19:55:21.321Z,9.90
2022-09-21T19:58:06.884Z,12.97
2022-09-21T20:00:35.364Z,13.13
2022-09-21T20:03:05.011Z,8.37
2022-09-21T20:05:39.983Z,24.10
2022-09-21T20:08:15.754Z,10.97
2022-09-21T20:10:56.758Z,10.40
2022-09-21T20:13:38.327Z,7.43
2022-09-21T20:16:28.598Z,12.23
2022-09-21T20:19:00.778Z,11.23
2022-09-21T20:21:41.411Z,14.60
2022-09-21T20:24:19.136Z,14.17
2022-09-21T20:26:48.620Z,13.57
2022-09-21T20:29:15.997Z,10.80
2022-09-21T20:31:46.667Z,16.23
2022-09-21T20:34:13.550Z,9.63
2022-09-21T20:36:40.418Z,12.93
2022-09-21T20:39:07.073Z,15.27
2022-09-21T20:41:33.677Z,9.47
2022-09-21T20:44:01.259Z,17.10
2022-09-21T20:46:27.863Z,15.10
2022-09-21T20:49:04.653Z,20.33
2022-09-21T20:51:32.593Z,18.90
2022-09-21T20:54:01.577Z,12.63
2022-09-21T20:56:28.801Z,12.37
2022-09-21T20:58:55.960Z,10.87
2022-09-21T21:01:23.265Z,14.13
2022-09-21T21:03:50.444Z,19.40
2022-09-21T21:06:18.623Z,18.73
2022-09-21T21:08:49.062Z,18.30
2022-09-21T21:11:15.673Z,14.87
2022-09-21T21:13:43.360Z,16.70
2022-09-21T21:16:14.810Z,9.80
2022-09-21T21:18:42.180Z,18.90
2022-09-21T21:21:09.333Z,20.80
2022-09-21T21:23:57.516Z,21.67
2022-09-21T21:26:43.896Z,23.70
2022-09-21T21:29:11.651Z,19.70
2022-09-21T21:31:39.170Z,27.97
2022-09-21T21:34:05.877Z,24.23
2022-09-21T21:36:33.123Z,21.03
2022-09-21T21:39:01.824Z,16.27
2022-09-21T21:41:30.409Z,23.63
2022-09-21T21:43:57.253Z,17.20
2022-09-21T21:46:24.743Z,15.00
2022-09-21T21:48:51.889Z,27.57
2022-09-21T21:51:18.624Z,22.83
2022-09-21T21:53:45.452Z,19.97
2022-09-21T21:56:15.032Z,18.17
2022-09-21T21:58:42.491Z,17.93
2022-09-21T22:01:10.846Z,21.93
2022-09-21T22:03:37.842Z,12.20
2022-09-21T22:06:05.808Z,20.10
2022-09-21T22:08:33.497Z,11.50
2022-09-21T22:11:00.687Z,19.13
2022-09-21T22:13:34.304Z,9.70
2022-09-21T22:16:04.470Z,9.00
2022-09-21T22:18:31.649Z,11.30
2022-09-21T22:21:02.303Z,11.20
2022-09-21T22:23:29.129Z,16.87
2022-09-21T22:26:01.629Z,10.47
2022-09-21T22:28:29.026Z,13.87
2022-09-21T22:30:55.846Z,11.83
2022-09-21T22:33:22.470Z,11.33
2022-09-21T22:35:49.067Z,11.30
2022-09-21T22:38:30.872Z,11.80
2022-09-21T22:41:02.855Z,13.10
2022-09-21T22:43:30.323Z,11.57
2022-09-21T22:45:57.009Z,14.23
2022-09-21T22:48:23.738Z,15.67
2022-09-21T22:50:50.425Z,13.83
2022-09-21T22:53:17.091Z,14.17
2022-09-21T22:55:43.782Z,10.37
2022-09-21T22:58:10.592Z,10.87
2022-09-21T23:00:37.914Z,10.93
2022-09-21T23:03:05.225Z,12.90
2022-09-21T23:05:31.862Z,17.80
2022-09-21T23:07:58.452Z,15.00
2022-09-21T23:10:26.235Z,25.10
2022-09-21T23:12:53.654Z,22.53
2022-09-21T23:15:20.596Z,32.07
2022-09-21T23:17:48.678Z,13.20
2022-09-21T23:20:16.548Z,15.07
2022-09-21T23:22:43.272Z,11.50
2022-09-21T23:25:10.115Z,8.13
2022-09-21T23:27:37.758Z,15.57
2022-09-21T23:30:05.171Z,10.73
2022-09-21T23:32:31.760Z,15.80
2022-09-21T23:34:59.240Z,10.27
2022-09-21T23:37:25.795Z,9.93
2022-09-21T23:39:52.377Z,12.33
2022-09-21T23:42:18.990Z,5.93
2022-09-21T23:44:47.196Z,9.53
2022-09-21T23:47:13.742Z,8.60
2022-09-21T23:49:40.323Z,9.37
2022-09-21T23:52:07.515Z,16.37
2022-09-21T23:54:34.091Z,8.37
2022-09-21T23:57:00.702Z,14.17
2022-09-21T23:59:27.264Z,7.57
